Time;durP1;ratioP1;P1;durP2;ratioP2;P2;SDS_P1;SDS_P2;PMS_P1;PMS_P2;Temp;Humidity;BMP_temperature;BMP_pressure;BME280_temperature;BME280_humidity;BME280_pressure;Samples;Min_cycle;Max_cycle;Signal;HPM_P1;HPM_P2
2023/05/03 00:01:47;;;;;;;;;;;;;;;-142.75;100.00;79015.88;4989166;28;20307;-66
2023/05/03 00:04:15;;;;;;;;;;;;;;;-142.75;100.00;79021.78;4990186;28;20295;-66
2023/05/03 00:06:42;;;;;;;;;;;;;;;-142.75;100.00;79025.72;4990157;28;20386;-65
2023/05/03 00:09:09;;;;;;;;;;;;;;;-142.75;100.00;79015.88;5002567;28;20049;-66
2023/05/03 00:11:34;;;;;;;;;;;;;;;-142.75;100.00;78980.44;4990422;28;20361;-65
2023/05/03 00:14:00;;;;;;;;;;;;;;;-142.75;100.00;78992.25;4990195;28;19976;-66
2023/05/03 00:16:25;;;;;;;;;;;;;;;-142.75;100.00;78996.19;4989991;28;19948;-66
2023/05/03 00:18:50;;;;;;;;;;;;;;;-142.75;100.00;78988.31;4990196;28;19914;-65
2023/05/03 00:21:16;;;;;;;;;;;;;;;-142.75;100.00;78984.38;4990056;28;19996;-66
2023/05/03 00:23:41;;;;;;;;;;;;;;;-142.75;100.00;79000.13;4992966;28;19935;-66
2023/05/03 00:26:06;;;;;;;;;;;;;;;-142.75;100.00;79011.94;4987151;28;20384;-66
2023/05/03 00:28:31;;;;;;;;;;;;;;;-142.75;100.00;79017.84;4988742;28;19914;-66
2023/05/03 00:31:05;;;;;;;;;;;;;;;-142.75;100.00;79021.78;4989717;28;20153;-66
2023/05/03 00:33:30;;;;;;;;;;;;;;;-142.75;100.00;79021.78;4988136;28;19964;-66
2023/05/03 00:35:55;;;;;;;;;;;;;;;-142.75;100.00;79015.88;4989213;28;19957;-66
2023/05/03 00:38:20;;;;;;;;;;;;;;;-142.75;100.00;79025.72;4988476;28;20506;-66
2023/05/03 00:40:52;;;;;;;;;;;;;;;-142.75;100.00;79031.66;4988591;28;20304;-65
2023/05/03 00:43:17;;;;;;;;;;;;;;;-142.75;100.00;79033.63;4988407;28;19913;-66
2023/05/03 00:45:45;;;;;;;;;;;;;;;-142.75;100.00;79035.59;4989554;28;19918;-66
2023/05/03 00:48:11;;;;;;;;;;;;;;;-142.75;100.00;79033.63;4982579;28;20295;-66
2023/05/03 00:50:36;;;;;;;;;;;;;;;-142.75;100.00;79041.50;4987474;28;19913;-66
2023/05/03 00:53:02;;;;;;;;;;;;;;;-142.75;100.00;79033.63;4993508;28;19918;-65
2023/05/03 00:55:29;;;;;;;;;;;;;;;-142.75;100.00;79025.72;4987978;28;20156;-66
2023/05/03 00:57:54;;;;;;;;;;;;;;;-142.75;100.00;79031.66;4989442;28;19917;-66
2023/05/03 01:00:21;;;;;;;;;;;;;;;-142.75;100.00;79015.88;4989332;28;19920;-66
2023/05/03 01:02:46;;;;;;;;;;;;;;;-142.75;100.00;79015.88;4986538;28;20359;-65
2023/05/03 01:05:11;;;;;;;;;;;;;;;-142.75;100.00;79017.84;4988195;28;20016;-65
2023/05/03 01:07:36;;;;;;;;;;;;;;;-142.75;100.00;79043.47;4988157;28;19918;-66
2023/05/03 01:10:28;;;;;;;;;;;;;;;-142.75;100.00;79031.66;4989212;28;19918;-65
2023/05/03 01:13:06;;;;;;;;;;;;;;;-142.75;100.00;79043.47;4985856;28;20511;-66
2023/05/03 01:15:40;;;;;;;;;;;;;;;-142.75;100.00;79049.38;4988948;28;20009;-66
2023/05/03 01:18:09;;;;;;;;;;;;;;;-142.75;100.00;79067.09;5000275;28;20010;-65
2023/05/03 01:20:36;;;;;;;;;;;;;;;-142.75;100.00;79049.38;4989481;28;19913;-65
2023/05/03 01:23:05;;;;;;;;;;;;;;;-142.75;100.00;79073.00;4989044;28;19920;-66
2023/05/03 01:25:30;;;;;;;;;;;;;;;-142.75;100.00;79074.97;5003376;28;20004;-66
2023/05/03 01:27:55;;;;;;;;;;;;;;;-142.75;100.00;79094.69;4987430;28;20004;-65
2023/05/03 01:30:22;;;;;;;;;;;;;;;-142.75;100.00;79116.34;4988426;28;19921;-65
2023/05/03 01:33:06;;;;;;;;;;;;;;;-142.75;100.00;79102.56;4987322;28;20012;-66
2023/05/03 01:35:48;;;;;;;;;;;;;;;-142.75;100.00;79104.53;4986357;28;19914;-65
2023/05/03 01:38:16;;;;;;;;;;;;;;;-142.75;100.00;79118.31;4987384;28;20464;-65
2023/05/03 01:40:47;;;;;;;;;;;;;;;-142.75;100.00;79106.50;4987240;28;19953;-65
2023/05/03 01:43:14;;;;;;;;;;;;;;;-142.75;100.00;79090.72;4987122;28;19964;-65
2023/05/03 01:45:40;;;;;;;;;;;;;;;-142.75;100.00;79104.53;4988136;28;20016;-65
2023/05/03 01:48:09;;;;;;;;;;;;;;;-142.75;100.00;79078.91;4989076;28;19913;-65
2023/05/03 01:50:34;;;;;;;;;;;;;;;-142.75;100.00;79071.03;4987608;28;20012;-66
2023/05/03 01:53:00;;;;;;;;;;;;;;;-142.75;100.00;79067.09;4988399;28;20000;-66
2023/05/03 01:55:25;;;;;;;;;;;;;;;-142.75;100.00;79051.34;4988032;28;19914;-66
2023/05/03 01:57:50;;;;;;;;;;;;;;;-142.75;100.00;79039.53;4986701;28;20286;-66
2023/05/03 02:00:16;;;;;;;;;;;;;;;-142.75;100.00;79055.28;4985748;28;19914;-66
2023/05/03 02:02:41;;;;;;;;;;;;;;;-142.75;100.00;79029.66;4988377;28;20598;-65
2023/05/03 02:05:08;;;;;;;;;;;;;;;-142.75;100.00;79019.81;4988476;28;19917;-66
2023/05/03 02:07:33;;;;;;;;;;;;;;;-142.75;100.00;79002.09;5000514;28;20311;-66
2023/05/03 02:09:58;;;;;;;;;;;;;;;-142.75;100.00;78998.16;4986320;28;19920;-66
2023/05/03 02:12:24;;;;;;;;;;;;;;;-142.75;100.00;79015.88;4986916;28;19967;-65
2023/05/03 02:14:50;;;;;;;;;;;;;;;-142.75;100.00;79027.69;4985477;28;19914;-66
2023/05/03 02:17:17;;;;;;;;;;;;;;;-142.75;100.00;79009.97;4987833;28;19922;-66
2023/05/03 02:19:42;;;;;;;;;;;;;;;-142.75;100.00;79031.66;4983722;28;20302;-66
2023/05/03 02:22:07;;;;;;;;;;;;;;;-142.75;100.00;79059.22;4985675;28;19924;-66
2023/05/03 02:24:35;;;;;;;;;;;;;;;-142.75;100.00;79059.22;4987573;28;20419;-66
2023/05/03 02:27:03;;;;;;;;;;;;;;;-142.75;100.00;79047.41;4986749;28;19928;-66
2023/05/03 02:29:28;;;;;;;;;;;;;;;-142.75;100.00;79059.22;4998632;28;20078;-66
2023/05/03 02:31:53;;;;;;;;;;;;;;;-142.75;100.00;79069.06;4998943;28;19913;-65
2023/05/03 02:34:19;;;;;;;;;;;;;;;-142.75;100.00;79074.97;4987824;28;19936;-65
2023/05/03 02:36:44;;;;;;;;;;;;;;;-142.75;100.00;79073.00;4987997;28;19917;-66
2023/05/03 02:39:09;;;;;;;;;;;;;;;-142.75;100.00;79078.91;4986440;28;20369;-64
2023/05/03 02:41:35;;;;;;;;;;;;;;;-142.75;100.00;79084.81;4987433;28;20361;-66
2023/05/03 02:44:00;;;;;;;;;;;;;;;-142.75;100.00;79108.47;4987311;28;20361;-66
2023/05/03 02:46:25;;;;;;;;;;;;;;;-142.75;100.00;79122.25;4987584;28;19953;-66
2023/05/03 02:48:50;;;;;;;;;;;;;;;-142.75;100.00;79130.13;5001227;28;19921;-66
2023/05/03 02:51:16;;;;;;;;;;;;;;;-142.75;100.00;79145.88;5004373;28;19913;-66
2023/05/03 02:53:41;;;;;;;;;;;;;;;-142.75;100.00;79136.03;4984832;28;19921;-65
2023/05/03 02:56:07;;;;;;;;;;;;;;;-142.75;100.00;79136.03;4987512;28;19925;-66
2023/05/03 02:58:32;;;;;;;;;;;;;;;-142.75;100.00;79120.28;4987707;28;19925;-66
2023/05/03 03:00:57;;;;;;;;;;;;;;;-142.75;100.00;79116.34;4987190;28;19913;-66
2023/05/03 03:03:22;;;;;;;;;;;;;;;-142.75;100.00;79122.25;4986013;28;19968;-65
2023/05/03 03:05:48;;;;;;;;;;;;;;;-142.75;100.00;79118.31;4987650;28;20017;-66
2023/05/03 03:08:13;;;;;;;;;;;;;;;-142.75;100.00;79128.16;4986004;28;19944;-65
2023/05/03 03:10:38;;;;;;;;;;;;;;;-142.75;100.00;79116.34;4985749;28;19914;-65
2023/05/03 03:13:03;;;;;;;;;;;;;;;-142.75;100.00;79122.25;4987325;28;20382;-65
2023/05/03 03:15:29;;;;;;;;;;;;;;;-142.75;100.00;79130.13;4985773;28;19914;-66
2023/05/03 03:17:57;;;;;;;;;;;;;;;-142.75;100.00;79141.94;4987235;28;21477;-65
2023/05/03 03:20:22;;;;;;;;;;;;;;;-142.75;100.00;79130.13;4985916;28;19914;-66
2023/05/03 03:22:47;;;;;;;;;;;;;;;-142.75;100.00;79139.97;4987357;28;20378;-65
2023/05/03 03:25:13;;;;;;;;;;;;;;;-142.75;100.00;79145.88;4987396;28;19936;-66
2023/05/03 03:27:41;;;;;;;;;;;;;;;-142.75;100.00;79149.81;4989892;28;19933;-66
2023/05/03 03:30:06;;;;;;;;;;;;;;;-142.75;100.00;79165.59;4990364;28;19920;-66
2023/05/03 03:32:32;;;;;;;;;;;;;;;-142.75;100.00;79157.72;4990542;28;20319;-66
2023/05/03 03:34:57;;;;;;;;;;;;;;;-142.75;100.00;79153.75;4989671;28;20076;-66
2023/05/03 03:37:22;;;;;;;;;;;;;;;-142.75;100.00;79149.81;4990910;28;19953;-66
2023/05/03 03:39:47;;;;;;;;;;;;;;;-142.75;100.00;79149.81;4990816;28;20479;-66
2023/05/03 03:42:13;;;;;;;;;;;;;;;-142.75;100.00;79145.88;4989379;28;19918;-66
2023/05/03 03:44:38;;;;;;;;;;;;;;;-142.75;100.00;79147.84;4990693;28;19924;-64
2023/05/03 03:47:04;;;;;;;;;;;;;;;-142.75;100.00;79141.94;4990825;28;19918;-66
2023/05/03 03:49:29;;;;;;;;;;;;;;;-142.75;100.00;79134.06;4990662;28;19918;-66
2023/05/03 03:51:54;;;;;;;;;;;;;;;-142.75;100.00;79165.59;4990761;28;19918;-66
2023/05/03 03:54:20;;;;;;;;;;;;;;;-142.75;100.00;79161.66;4990073;28;20318;-66
2023/05/03 03:56:45;;;;;;;;;;;;;;;-142.75;100.00;79161.66;5004806;28;20378;-66
2023/05/03 03:59:10;;;;;;;;;;;;;;;-142.75;100.00;79159.69;4990513;28;19917;-66
2023/05/03 04:01:35;;;;;;;;;;;;;;;-142.75;100.00;79187.25;4990659;28;19922;-66
2023/05/03 04:04:00;;;;;;;;;;;;;;;-142.75;100.00;79208.91;4989892;28;19920;-65
2023/05/03 04:06:26;;;;;;;;;;;;;;;-142.75;100.00;79212.84;4989324;28;20008;-66
2023/05/03 04:08:51;;;;;;;;;;;;;;;-142.75;100.00;79248.31;4990369;28;19993;-66
2023/05/03 04:11:16;;;;;;;;;;;;;;;-142.75;100.00;79222.72;4990239;28;19926;-65
2023/05/03 04:13:42;;;;;;;;;;;;;;;-142.75;100.00;79236.50;4989718;28;20004;-65
2023/05/03 04:16:07;;;;;;;;;;;;;;;-142.75;100.00;79236.50;4990044;28;19952;-65
2023/05/03 04:18:32;;;;;;;;;;;;;;;-142.75;100.00;79242.41;4990038;28;19917;-66
2023/05/03 04:20:58;;;;;;;;;;;;;;;-142.75;100.00;79224.69;4989006;28;19971;-66
2023/05/03 04:23:23;;;;;;;;;;;;;;;-142.75;100.00;79224.69;4988441;28;19959;-66
2023/05/03 04:25:48;;;;;;;;;;;;;;;-142.75;100.00;79224.69;4989736;28;19921;-66
2023/05/03 04:28:14;;;;;;;;;;;;;;;-142.75;100.00;79242.41;4988683;28;19920;-66
2023/05/03 04:30:40;;;;;;;;;;;;;;;-142.75;100.00;79226.66;4989296;28;19967;-66
2023/05/03 04:33:05;;;;;;;;;;;;;;;-142.75;100.00;79208.91;4989020;28;19924;-66
2023/05/03 04:35:31;;;;;;;;;;;;;;;-142.75;100.00;79230.59;4989850;28;20004;-65
2023/05/03 04:37:56;;;;;;;;;;;;;;;-142.75;100.00;79208.91;4988951;28;20348;-66
2023/05/03 04:40:21;;;;;;;;;;;;;;;-142.75;100.00;79193.16;4989559;28;19917;-66
2023/05/03 04:42:47;;;;;;;;;;;;;;;-142.75;100.00;79187.25;4989768;28;19949;-65
2023/05/03 04:45:13;;;;;;;;;;;;;;;-142.75;100.00;79187.25;4989263;28;19918;-66
2023/05/03 04:47:41;;;;;;;;;;;;;;;-142.75;100.00;79185.28;4989705;28;21336;-66
2023/05/03 04:50:07;;;;;;;;;;;;;;;-142.75;100.00;79165.59;4989807;28;19968;-66
2023/05/03 04:52:32;;;;;;;;;;;;;;;-142.75;100.00;79173.47;4989657;28;19913;-66
2023/05/03 04:54:58;;;;;;;;;;;;;;;-142.75;100.00;79185.28;4987846;28;19921;-66
2023/05/03 04:57:23;;;;;;;;;;;;;;;-142.75;100.00;79173.47;4989274;28;20446;-65
2023/05/03 04:59:49;;;;;;;;;;;;;;;-142.75;100.00;79173.47;4989260;28;19914;-66
2023/05/03 05:02:14;;;;;;;;;;;;;;;-142.75;100.00;79181.34;4987915;28;19917;-66
2023/05/03 05:04:39;;;;;;;;;;;;;;;-142.75;100.00;79173.47;4989013;28;19918;-66
2023/05/03 05:07:05;;;;;;;;;;;;;;;-142.75;100.00;79163.63;4988391;28;20290;-65
2023/05/03 05:09:30;;;;;;;;;;;;;;;-142.75;100.00;79145.88;4987790;28;20410;-66
2023/05/03 05:11:56;;;;;;;;;;;;;;;-142.75;100.00;79110.44;4988005;28;19933;-66
2023/05/03 05:14:21;;;;;;;;;;;;;;;-142.75;100.00;79106.50;4987246;28;19959;-66
2023/05/03 05:16:46;;;;;;;;;;;;;;;-142.75;100.00;79098.63;4989184;28;19920;-66
2023/05/03 05:19:11;;;;;;;;;;;;;;;-142.75;100.00;79102.56;4987631;28;19913;-65
2023/05/03 05:21:37;;;;;;;;;;;;;;;-142.75;100.00;79076.94;4986553;28;20067;-66
2023/05/03 05:24:03;;;;;;;;;;;;;;;-142.75;100.00;79073.00;4988589;28;19958;-66
2023/05/03 05:26:28;;;;;;;;;;;;;;;-142.75;100.00;79059.22;5008439;28;19949;-66
2023/05/03 05:28:53;;;;;;;;;;;;;;;-142.75;100.00;79031.66;5008477;28;19913;-66
2023/05/03 05:31:19;;;;;;;;;;;;;;;-142.75;100.00;79029.66;5006225;28;19928;-66
2023/05/03 05:33:44;;;;;;;;;;;;;;;-142.75;100.00;79023.75;4988244;28;19925;-66
2023/05/03 05:36:09;;;;;;;;;;;;;;;-142.75;100.00;79009.97;4995221;28;20287;-66
2023/05/03 05:38:35;;;;;;;;;;;;;;;-142.75;100.00;79008.00;4990791;28;20385;-67
2023/05/03 05:41:01;;;;;;;;;;;;;;;-142.75;100.00;78982.41;4988270;28;20367;-66
2023/05/03 05:43:26;;;;;;;;;;;;;;;-142.75;100.00;78980.44;4988381;28;19914;-66
2023/05/03 05:45:51;;;;;;;;;;;;;;;-142.75;100.00;78958.75;4988384;28;19924;-65
2023/05/03 05:48:16;;;;;;;;;;;;;;;-142.75;100.00;78919.38;4987086;28;20009;-66
2023/05/03 05:50:41;;;;;;;;;;;;;;;-142.75;100.00;78937.09;4988528;28;19936;-65
2023/05/03 05:53:07;;;;;;;;;;;;;;;-142.75;100.00;78905.59;4987701;28;20295;-66
2023/05/03 05:55:33;;;;;;;;;;;;;;;-142.75;100.00;78897.72;4988764;28;19915;-66
2023/05/03 05:57:58;;;;;;;;;;;;;;;-142.75;100.00;78897.72;4988614;28;19914;-66
2023/05/03 06:00:23;;;;;;;;;;;;;;;-142.75;100.00;78864.22;4988378;28;19920;-66
2023/05/03 06:02:49;;;;;;;;;;;;;;;-142.75;100.00;78854.38;4993052;28;20003;-66
2023/05/03 06:05:14;;;;;;;;;;;;;;;-142.75;100.00;78856.34;4990772;28;19975;-65
2023/05/03 06:07:40;;;;;;;;;;;;;;;-142.75;100.00;78805.13;4986849;28;20383;-65
2023/05/03 06:10:05;;;;;;;;;;;;;;;-142.75;100.00;78789.38;4987526;28;19909;-66
2023/05/03 06:12:30;;;;;;;;;;;;;;;-142.75;100.00;78750.00;4993313;28;19909;-66
2023/05/03 06:14:56;;;;;;;;;;;;;;;-142.75;100.00;78720.44;5007389;28;19909;-66
2023/05/03 06:17:22;;;;;;;;;;;;;;;-142.75;100.00;78710.59;5007575;28;19909;-66
2023/05/03 06:19:48;;;;;;;;;;;;;;;-142.75;100.00;78679.09;4992066;28;20012;-66
2023/05/03 06:22:13;;;;;;;;;;;;;;;-142.75;100.00;78665.28;4978327;28;20087;-65
2023/05/03 06:24:41;;;;;;;;;;;;;;;-142.75;100.00;78665.28;4988507;28;19914;-65
2023/05/03 06:27:07;;;;;;;;;;;;;;;-142.75;100.00;78700.75;4986397;28;19917;-65
2023/05/03 06:29:32;;;;;;;;;;;;;;;-142.75;100.00;78677.13;4991301;28;19921;-65
2023/05/03 06:31:57;;;;;;;;;;;;;;;-142.75;100.00;78667.25;4999623;28;19913;-65
2023/05/03 06:34:23;;;;;;;;;;;;;;;-142.75;100.00;78649.53;4990290;28;19909;-65
2023/05/03 06:36:49;;;;;;;;;;;;;;;-142.75;100.00;78673.19;4984599;28;19910;-64
2023/05/03 06:39:14;;;;;;;;;;;;;;;-142.75;100.00;78679.09;4989456;28;19920;-65
2023/05/03 06:41:40;;;;;;;;;;;;;;;-142.75;100.00;78645.59;5000801;28;19955;-66
2023/05/03 06:44:06;;;;;;;;;;;;;;;-142.75;100.00;78618.03;4986689;28;19918;-65
2023/05/03 06:46:31;;;;;;;;;;;;;;;-142.75;100.00;78612.13;4989350;28;20394;-66
2023/05/03 06:48:56;;;;;;;;;;;;;;;-142.75;100.00;78620.00;4983470;28;19949;-65
2023/05/03 06:51:26;;;;;;;;;;;;;;;-142.75;100.00;78657.41;4986368;28;19917;-66
2023/05/03 06:53:51;;;;;;;;;;;;;;;-142.75;100.00;78592.44;4988148;28;19971;-65
2023/05/03 06:56:17;;;;;;;;;;;;;;;-142.75;100.00;78574.69;4986104;28;19909;-65
2023/05/03 06:58:42;;;;;;;;;;;;;;;-142.75;100.00;78584.56;5006959;28;19916;-64
2023/05/03 07:01:07;;;;;;;;;;;;;;;-142.75;100.00;78549.09;5006656;28;19909;-66
2023/05/03 07:03:32;;;;;;;;;;;;;;;-142.75;100.00;78541.22;5006291;28;20384;-65
2023/05/03 07:05:58;;;;;;;;;;;;;;;-142.75;100.00;78523.50;5007151;28;19929;-65
2023/05/03 07:08:23;;;;;;;;;;;;;;;-142.75;100.00;78531.38;4972837;28;19992;-65
2023/05/03 07:10:48;;;;;;;;;;;;;;;-142.75;100.00;78547.13;5006742;28;20015;-65
2023/05/03 07:13:13;;;;;;;;;;;;;;;-142.75;100.00;78529.41;5006548;28;19909;-65
2023/05/03 07:15:39;;;;;;;;;;;;;;;-142.75;100.00;78513.66;5006763;28;20095;-64
2023/05/03 07:18:04;;;;;;;;;;;;;;;-142.75;100.00;78462.44;5006831;28;19924;-66
2023/05/03 07:20:29;;;;;;;;;;;;;;;-142.75;100.00;78495.94;5006507;28;19924;-66
2023/05/03 07:22:54;;;;;;;;;;;;;;;-142.75;98.95;78470.31;5006775;28;20420;-65
2023/05/03 07:25:20;;;;;;;;;;;;;;;-142.75;97.13;78490.00;4985334;28;19921;-66
2023/05/03 07:27:45;;;;;;;;;;;;;;;-142.75;98.84;78476.22;4987236;28;19914;-65
2023/05/03 07:30:10;;;;;;;;;;;;;;;-142.75;98.68;78450.63;4987187;28;19914;-65
2023/05/03 07:32:36;;;;;;;;;;;;;;;-142.75;94.35;78450.63;4987193;28;19929;-66
2023/05/03 07:35:02;;;;;;;;;;;;;;;-142.75;95.55;78446.69;4986958;28;20514;-65
2023/05/03 07:37:27;;;;;;;;;;;;;;;-142.75;95.06;78427.00;4987399;28;19913;-66
2023/05/03 07:39:52;;;;;;;;;;;;;;;-142.75;91.71;78442.75;4990830;28;20286;-66
2023/05/03 07:42:18;;;;;;;;;;;;;;;-142.75;91.85;78434.88;5006248;28;19949;-65
2023/05/03 07:44:43;;;;;;;;;;;;;;;-142.75;89.53;78428.97;5006248;28;20020;-65
2023/05/03 07:47:08;;;;;;;;;;;;;;;-142.75;89.07;78411.25;5006511;28;19963;-65
2023/05/03 07:49:36;;;;;;;;;;;;;;;-142.75;87.49;78391.53;5005175;28;20286;-65
2023/05/03 07:52:01;;;;;;;;;;;;;;;-142.75;89.92;78393.50;5006565;28;19909;-65
2023/05/03 07:54:27;;;;;;;;;;;;;;;-142.75;89.33;78405.34;5006123;28;20382;-65
2023/05/03 07:56:52;;;;;;;;;;;;;;;-142.75;88.75;78432.91;4989115;28;19917;-66
2023/05/03 07:59:17;;;;;;;;;;;;;;;-142.75;89.47;78450.63;5006354;28;20386;-66
2023/05/03 08:01:42;;;;;;;;;;;;;;;-142.75;91.58;78446.69;5006437;28;19914;-65
2023/05/03 08:04:10;;;;;;;;;;;;;;;-142.75;91.93;78425.03;4988359;28;20020;-65
2023/05/03 08:06:37;;;;;;;;;;;;;;;-142.75;90.80;78397.44;5006013;28;20294;-66
2023/05/03 08:09:03;;;;;;;;;;;;;;;-142.75;87.63;78391.53;4983223;28;19914;-66
2023/05/03 08:11:29;;;;;;;;;;;;;;;-142.75;88.56;78358.06;4986108;28;19910;-65
2023/05/03 08:13:54;;;;;;;;;;;;;;;-142.75;88.52;78371.84;4995415;28;19996;-66
2023/05/03 08:16:20;;;;;;;;;;;;;;;-142.75;87.10;78373.81;4993400;28;20522;-66
2023/05/03 08:18:45;;;;;;;;;;;;;;;-142.75;87.85;78354.13;4992128;28;20345;-66
2023/05/03 08:21:12;;;;;;;;;;;;;;;-142.75;87.75;78342.31;4989372;28;20278;-65
2023/05/03 08:23:37;;;;;;;;;;;;;;;-142.75;88.93;78318.69;4996689;28;20440;-67
2023/05/03 08:26:03;;;;;;;;;;;;;;;-142.75;89.08;78267.47;5000474;28;19913;-66
2023/05/03 08:28:29;;;;;;;;;;;;;;;-142.75;85.89;78279.28;5001243;28;19909;-66
2023/05/03 08:30:55;;;;;;;;;;;;;;;-142.75;87.76;78228.09;4989578;28;20382;-65
2023/05/03 08:33:21;;;;;;;;;;;;;;;-142.75;82.94;78204.47;4984844;28;19922;-65
2023/05/03 08:35:46;;;;;;;;;;;;;;;-142.75;81.16;78161.13;4984418;28;20413;-65
2023/05/03 08:38:12;;;;;;;;;;;;;;;-142.75;82.71;78102.06;4997815;28;20581;-63
2023/05/03 08:40:40;;;;;;;;;;;;;;;-142.75;81.22;78090.25;4990993;28;19909;-65
2023/05/03 08:43:09;;;;;;;;;;;;;;;-142.75;79.52;78167.03;4987746;28;20317;-66
2023/05/03 08:45:34;;;;;;;;;;;;;;;-142.75;80.51;78143.41;4999750;28;19913;-67
2023/05/03 08:48:02;;;;;;;;;;;;;;;-142.75;80.57;78125.69;5000624;28;20492;-67
2023/05/03 08:50:27;;;;;;;;;;;;;;;-142.75;79.42;78157.19;5007861;28;19916;-66
2023/05/03 08:52:53;;;;;;;;;;;;;;;-142.75;80.63;78167.03;5009783;28;19909;-66
2023/05/03 08:55:20;;;;;;;;;;;;;;;-142.75;80.31;78137.50;5003885;28;19916;-66
2023/05/03 08:57:46;;;;;;;;;;;;;;;-142.75;78.47;78137.50;4990281;28;19910;-67
2023/05/03 09:00:11;;;;;;;;;;;;;;;-142.75;79.88;78135.53;4991867;28;20305;-67
2023/05/03 09:02:40;;;;;;;;;;;;;;;-142.75;80.55;78133.56;5001481;28;19913;-67
2023/05/03 09:05:25;;;;;;;;;;;;;;;-142.75;80.46;78123.72;4989977;28;19925;-67
2023/05/03 09:08:03;;;;;;;;;;;;;;;-142.75;78.90;78082.38;4979582;28;19909;-67
2023/05/03 09:10:29;;;;;;;;;;;;;;;-142.75;77.17;78074.50;4988424;28;20008;-67
2023/05/03 09:13:01;;;;;;;;;;;;;;;-142.75;78.05;78062.69;4989821;28;20379;-67
2023/05/03 09:15:29;;;;;;;;;;;;;;;-142.75;79.93;78031.16;4989635;28;20279;-67
2023/05/03 09:18:10;;;;;;;;;;;;;;;-142.75;76.40;77960.28;4987968;28;19916;-67
2023/05/03 09:20:37;;;;;;;;;;;;;;;-142.75;73.28;77932.72;4994985;28;20374;-67
2023/05/03 09:23:03;;;;;;;;;;;;;;;-142.75;73.79;77936.66;4986746;28;20008;-66
2023/05/03 09:25:44;;;;;;;;;;;;;;;-142.75;74.06;77952.41;4998739;28;20017;-66
2023/05/03 09:28:10;;;;;;;;;;;;;;;-142.75;73.89;77936.66;4993496;28;20021;-66
2023/05/03 09:30:35;;;;;;;;;;;;;;;-142.75;73.32;77924.84;4990100;28;20004;-66
2023/05/03 09:33:01;;;;;;;;;;;;;;;-142.75;73.27;77901.19;4986361;28;19910;-66
2023/05/03 09:35:27;;;;;;;;;;;;;;;-142.75;73.55;77855.91;4990630;28;19917;-66
2023/05/03 09:37:52;;;;;;;;;;;;;;;-142.75;72.45;77865.75;4992815;28;19921;-66
2023/05/03 09:40:18;;;;;;;;;;;;;;;-142.75;70.80;77830.31;5002840;28;19910;-66
2023/05/03 09:43:03;;;;;;;;;;;;;;;-142.75;74.18;77806.69;4999474;28;20036;-66
2023/05/03 09:45:30;;;;;;;;;;;;;;;-142.75;71.82;77727.94;4988129;28;20383;-66
2023/05/03 09:47:56;;;;;;;;;;;;;;;-142.75;68.97;77751.56;4995761;28;20306;-66
2023/05/03 09:50:23;;;;;;;;;;;;;;;-142.75;68.55;77765.34;4987796;28;19929;-68
2023/05/03 09:52:48;;;;;;;;;;;;;;;-142.75;70.24;77796.84;4995675;28;19921;-67
2023/05/03 09:55:15;;;;;;;;;;;;;;;-142.75;72.30;77798.81;4999617;28;19913;-68
2023/05/03 09:57:41;;;;;;;;;;;;;;;-142.75;70.85;77816.53;5007298;28;19960;-67
2023/05/03 10:00:07;;;;;;;;;;;;;;;-142.75;71.67;77826.38;4989842;28;20379;-67
2023/05/03 10:02:33;;;;;;;;;;;;;;;-142.75;72.95;77822.44;5007070;28;19913;-67
2023/05/03 10:04:58;;;;;;;;;;;;;;;-142.75;70.89;77775.19;5007582;28;19922;-67
2023/05/03 10:07:26;;;;;;;;;;;;;;;-142.75;67.23;77775.19;5007728;28;19956;-67
2023/05/03 10:09:52;;;;;;;;;;;;;;;-142.75;67.77;77834.25;5007365;28;19917;-67
2023/05/03 10:12:18;;;;;;;;;;;;;;;-142.75;73.09;77796.84;5007085;28;19920;-67
2023/05/03 10:14:45;;;;;;;;;;;;;;;-142.75;69.87;77785.03;5006785;28;19913;-66
2023/05/03 10:17:17;;;;;;;;;;;;;;;-142.75;69.04;77720.03;4991974;28;19914;-67
2023/05/03 10:19:55;;;;;;;;;;;;;;;-142.75;70.21;77729.88;4988579;28;19917;-67
2023/05/03 10:22:20;;;;;;;;;;;;;;;-142.75;72.63;77684.59;4984758;28;19968;-67
2023/05/03 10:25:01;;;;;;;;;;;;;;;-142.75;70.75;77615.69;4987305;28;19918;-67
2023/05/03 10:27:41;;;;;;;;;;;;;;;-142.75;68.82;77725.97;4986215;28;19948;-67
2023/05/03 10:30:08;;;;;;;;;;;;;;;-142.75;70.37;77619.63;4987514;28;19917;-67
2023/05/03 10:32:41;;;;;;;;;;;;;;;-142.75;68.37;77688.53;4987315;28;19914;-67
2023/05/03 10:35:14;;;;;;;;;;;;;;;-142.75;68.88;77641.28;4986848;28;19913;-67
2023/05/03 10:37:41;;;;;;;;;;;;;;;-142.75;65.90;77684.59;4988293;28;19953;-67
2023/05/03 10:40:13;;;;;;;;;;;;;;;-142.75;69.62;77670.81;4987641;28;19984;-67
2023/05/03 10:42:42;;;;;;;;;;;;;;;-142.75;69.40;77666.88;4987281;28;19914;-67
2023/05/03 10:45:08;;;;;;;;;;;;;;;-142.75;69.63;77623.56;4993045;28;20656;-67
2023/05/03 10:47:33;;;;;;;;;;;;;;;-142.75;68.89;77546.78;4988835;28;20008;-67
2023/05/03 10:50:14;;;;;;;;;;;;;;;-142.75;63.24;77566.47;4989121;28;19964;-67
2023/05/03 10:52:39;;;;;;;;;;;;;;;-142.75;61.97;77609.78;5002400;28;20407;-67
2023/05/03 10:55:11;;;;;;;;;;;;;;;-142.75;65.44;77566.47;4987097;28;19972;-67
2023/05/03 10:57:37;;;;;;;;;;;;;;;-142.75;65.20;77662.94;4988632;28;19920;-67
2023/05/03 11:00:11;;;;;;;;;;;;;;;-142.75;67.60;77554.66;4987031;28;20405;-67
2023/05/03 11:02:37;;;;;;;;;;;;;;;-142.75;63.30;77594.03;4987189;28;20032;-67
2023/05/03 11:05:07;;;;;;;;;;;;;;;-142.75;65.12;77601.91;4986607;28;19918;-67
2023/05/03 11:07:33;;;;;;;;;;;;;;;-142.75;62.89;77633.41;4987730;28;19956;-66
2023/05/03 11:09:58;;;;;;;;;;;;;;;-142.75;63.84;77609.78;4987107;28;19961;-67
2023/05/03 11:12:23;;;;;;;;;;;;;;;-142.75;61.65;77672.78;4987033;28;20394;-67
2023/05/03 11:14:49;;;;;;;;;;;;;;;-142.75;62.45;77609.78;4989447;28;19928;-67
2023/05/03 11:17:14;;;;;;;;;;;;;;;-142.75;62.69;77597.97;5006468;28;20029;-66
2023/05/03 11:19:42;;;;;;;;;;;;;;;-142.75;62.72;77582.22;4996636;28;19913;-66
2023/05/03 11:22:07;;;;;;;;;;;;;;;-142.75;62.43;77511.34;4985473;28;19918;-65
2023/05/03 11:24:33;;;;;;;;;;;;;;;-142.75;61.18;77534.97;4985533;28;19918;-66
2023/05/03 11:26:58;;;;;;;;;;;;;;;-142.75;62.65;77531.03;4991555;28;20353;-65
2023/05/03 11:29:24;;;;;;;;;;;;;;;-142.75;62.51;77576.31;5003393;28;20011;-65
2023/05/03 11:31:50;;;;;;;;;;;;;;;-142.75;60.79;77560.56;4987168;28;19913;-66
2023/05/03 11:34:15;;;;;;;;;;;;;;;-142.75;61.41;77511.34;4995952;28;20465;-65
2023/05/03 11:36:41;;;;;;;;;;;;;;;-142.75;60.92;77501.50;5003658;28;19917;-65
2023/05/03 11:39:07;;;;;;;;;;;;;;;-142.75;60.00;77473.94;4998142;28;19913;-66
2023/05/03 11:41:32;;;;;;;;;;;;;;;-142.75;60.50;77424.69;4992473;28;20538;-65
2023/05/03 11:43:57;;;;;;;;;;;;;;;-142.75;58.01;77389.25;4984374;28;20363;-66
2023/05/03 11:46:24;;;;;;;;;;;;;;;-142.75;60.59;77426.66;4986806;28;19972;-65
2023/05/03 11:48:49;;;;;;;;;;;;;;;-142.75;61.93;77448.34;4985961;28;19964;-65
2023/05/03 11:51:20;;;;;;;;;;;;;;;-142.75;63.17;77523.16;4989984;28;19922;-65
2023/05/03 11:53:47;;;;;;;;;;;;;;;-142.75;59.79;77436.50;4988879;28;19971;-65
2023/05/03 11:56:14;;;;;;;;;;;;;;;-142.75;59.10;77460.13;4988950;28;19921;-65
2023/05/03 11:58:50;;;;;;;;;;;;;;;-142.75;57.13;77436.50;4989293;28;20387;-66
2023/05/03 12:01:15;;;;;;;;;;;;;;;-142.75;58.17;77422.72;4989991;28;19917;-65
2023/05/03 12:03:40;;;;;;;;;;;;;;;-142.75;61.62;77454.25;4989810;28;19920;-65
2023/05/03 12:06:06;;;;;;;;;;;;;;;-142.75;59.99;77473.94;4989219;28;19918;-66
2023/05/03 12:08:32;;;;;;;;;;;;;;;-142.75;61.66;77460.13;4991644;28;19914;-66
2023/05/03 12:10:59;;;;;;;;;;;;;;;-142.75;61.97;77434.53;4989967;28;19976;-66
2023/05/03 12:13:34;;;;;;;;;;;;;;;-142.75;60.59;77444.38;4990603;28;19917;-66
2023/05/03 12:15:59;;;;;;;;;;;;;;;-142.75;62.25;77475.91;4989455;28;21189;-66
2023/05/03 12:18:25;;;;;;;;;;;;;;;-142.75;62.86;77406.97;4995777;28;19923;-66